Terminal Aerodrome Forecast
Issued by NWS Paducah, KY

Home | Current Version | Previous Version | Text Only | Print | Product List | Glossary Off
Versions: 1 2 3 4 5 6 7 8 9 10 11 12 13 14 15

770
FTUS43 KPAH 201602 AAC
TAFPAH
TAF AMD
KPAH 201602Z 2016/2112 21008KT P6SM VCSH SCT035 BKN090
     FM202300 19007KT P6SM VCTS SCT040CB BKN090
     FM210400 20005KT P6SM OVC070
     FM211000 28005KT P6SM OVC025=

USA.gov is the U.S. government's official web portal to all federal, state and local government web resources and services.